Time;durP1;ratioP1;P1;durP2;ratioP2;P2;SDS_P1;SDS_P2;PMS_P1;PMS_P2;Temp;Humidity;BMP_temperature;BMP_pressure;BME280_temperature;BME280_humidity;BME280_pressure;Samples;Min_cycle;Max_cycle;Signal;HPM_P1;HPM_P2
2021/12/08 00:02:20;;;;;;;52.33;32.60;;;26.20;99.90;;;;;;5096047;28;20081;-65
2021/12/08 00:04:47;;;;;;;48.03;29.17;;;26.20;99.90;;;;;;5096343;28;20028;-65
2021/12/08 00:07:14;;;;;;;40.83;28.58;;;26.20;99.90;;;;;;5095906;28;20039;-65
2021/12/08 00:14:40;;;;;;;39.63;24.70;;;26.50;99.90;;;;;;5095838;28;20499;-64
2021/12/08 00:17:07;;;;;;;42.50;27.17;;;26.50;99.90;;;;;;5096078;28;20028;-65
2021/12/08 00:19:33;;;;;;;202.25;144.88;;;26.60;99.90;;;;;;5096040;28;20020;-64
2021/12/08 00:22:00;;;;;;;39.08;23.70;;;26.80;99.90;;;;;;5095396;28;20392;-64
2021/12/08 00:24:27;;;;;;;41.55;25.17;;;26.80;99.90;;;;;;5095937;28;20028;-65
2021/12/08 00:26:56;;;;;;;43.72;23.02;;;26.90;99.90;;;;;;5095652;28;20028;-65
2021/12/08 00:29:23;;;;;;;35.67;20.25;;;27.00;99.90;;;;;;5095891;28;20513;-65
2021/12/08 00:31:50;;;;;;;30.33;20.30;;;27.00;99.90;;;;;;5094670;28;20028;-64
2021/12/08 00:34:17;;;;;;;41.63;21.80;;;27.10;99.90;;;;;;5092302;28;20127;-64
2021/12/08 00:36:48;;;;;;;37.92;20.67;;;27.10;99.90;;;;;;5091971;28;20450;-65
2021/12/08 00:39:14;;;;;;;44.58;21.90;;;27.20;99.90;;;;;;5093137;28;20065;-65
2021/12/08 00:41:42;;;;;;;37.70;18.90;;;27.40;99.90;;;;;;5095678;28;20024;-66
2021/12/08 00:44:09;;;;;;;42.53;19.83;;;27.50;99.90;;;;;;5095491;28;20051;-65
2021/12/08 00:46:37;;;;;;;42.22;17.77;;;27.50;99.90;;;;;;5095481;28;20437;-64
2021/12/08 00:49:06;;;;;;;44.30;17.35;;;27.60;99.90;;;;;;5094868;28;20059;-65
2021/12/08 00:51:33;;;;;;;36.03;19.27;;;27.70;99.90;;;;;;5095146;28;20032;-66
2021/12/08 00:54:01;;;;;;;45.28;18.30;;;27.70;99.90;;;;;;5095309;28;20039;-65
2021/12/08 00:56:28;;;;;;;36.53;16.55;;;27.80;99.90;;;;;;5093278;28;20361;-63
2021/12/08 00:58:55;;;;;;;35.42;16.45;;;27.80;99.90;;;;;;5095253;28;20020;-64
2021/12/08 01:01:22;;;;;;;31.52;16.67;;;27.90;99.90;;;;;;5095275;28;20032;-66
2021/12/08 01:03:49;;;;;;;42.10;18.73;;;28.10;99.90;;;;;;5095131;28;20038;-66
2021/12/08 01:06:17;;;;;;;39.95;21.00;;;28.10;99.90;;;;;;5094505;28;20515;-65
2021/12/08 01:08:44;;;;;;;38.55;18.88;;;28.10;99.90;;;;;;5095302;28;20071;-65
2021/12/08 01:11:15;;;;;;;43.33;20.42;;;28.30;99.90;;;;;;5094366;28;20024;-65
2021/12/08 01:13:42;;;;;;;38.42;18.48;;;28.40;99.90;;;;;;5094527;28;20067;-65
2021/12/08 01:16:09;;;;;;;42.80;20.40;;;28.30;99.90;;;;;;5094946;28;20024;-66
2021/12/08 01:18:36;;;;;;;43.22;21.30;;;28.30;99.90;;;;;;5094897;28;20024;-65
2021/12/08 01:21:07;;;;;;;45.17;23.08;;;28.20;99.90;;;;;;5094494;28;20032;-66
2021/12/08 01:23:34;;;;;;;48.72;22.98;;;28.30;99.90;;;;;;5094837;28;20028;-64
2021/12/08 01:26:02;;;;;;;49.85;20.52;;;28.30;99.90;;;;;;5094794;28;20028;-65
2021/12/08 01:28:29;;;;;;;52.85;21.45;;;28.30;99.90;;;;;;5094699;28;20020;-66
2021/12/08 01:30:59;;;;;;;42.47;20.60;;;28.30;99.90;;;;;;5094696;28;20024;-65
2021/12/08 01:33:28;;;;;;;148.90;107.45;;;28.30;99.90;;;;;;5094381;28;20031;-62
2021/12/08 01:35:55;;;;;;;55.90;29.88;;;28.20;99.90;;;;;;5094231;28;20554;-66
2021/12/08 01:38:22;;;;;;;47.28;17.63;;;28.20;99.90;;;;;;5094568;28;20081;-65
2021/12/08 01:40:49;;;;;;;35.17;16.65;;;28.20;99.90;;;;;;5094242;28;20024;-64
2021/12/08 01:48:25;;;;;;;64.70;25.08;;;28.30;99.90;;;;;;5093802;28;20028;-65
2021/12/08 01:50:56;;;;;;;54.33;22.55;;;28.30;99.90;;;;;;5094307;28;20484;-65
2021/12/08 01:53:24;;;;;;;42.93;18.47;;;28.30;99.90;;;;;;5094174;28;20032;-66
2021/12/08 01:55:51;;;;;;;50.08;20.30;;;28.30;99.90;;;;;;5093745;28;20772;-66
2021/12/08 01:58:19;;;;;;;47.97;21.05;;;28.30;99.90;;;;;;5092183;28;20107;-65
2021/12/08 02:00:51;;;;;;;49.70;17.65;;;28.30;99.90;;;;;;5093691;28;20066;-63
2021/12/08 02:03:19;;;;;;;53.30;19.73;;;28.40;99.90;;;;;;5091860;28;20052;-65
2021/12/08 02:05:46;;;;;;;41.88;17.83;;;28.50;99.90;;;;;;5094057;28;20102;-65
2021/12/08 02:08:13;;;;;;;120.13;70.70;;;28.40;99.90;;;;;;5093871;28;20081;-65
2021/12/08 02:10:41;;;;;;;50.75;20.10;;;28.50;99.90;;;;;;5094032;28;20088;-65
2021/12/08 02:13:09;;;;;;;183.23;110.47;;;28.50;99.90;;;;;;5094350;28;20021;-65
2021/12/08 02:15:38;;;;;;;64.13;20.52;;;28.50;99.90;;;;;;5093822;28;20027;-65
2021/12/08 02:18:07;;;;;;;42.85;18.35;;;28.50;99.90;;;;;;5094375;28;20551;-65
2021/12/08 02:20:34;;;;;;;54.25;20.70;;;28.50;99.90;;;;;;5092883;28;20063;-66
2021/12/08 02:23:01;;;;;;;49.15;20.88;;;28.50;99.90;;;;;;5087527;28;20089;-65
2021/12/08 02:25:28;;;;;;;48.63;18.92;;;28.50;99.90;;;;;;5093383;28;20031;-65
2021/12/08 02:27:57;;;;;;;52.22;22.02;;;28.40;99.90;;;;;;5093707;28;20036;-66
2021/12/08 02:30:35;;;;;;;61.72;17.88;;;28.50;99.90;;;;;;5093673;28;20036;-64
2021/12/08 02:48:56;;;;;;;46.65;16.13;;;28.80;99.90;;;;;;5093186;28;20020;-65
2021/12/08 02:51:23;;;;;;;37.25;15.27;;;28.80;99.90;;;;;;5093159;28;20388;-64
2021/12/08 02:53:50;;;;;;;36.75;15.20;;;28.90;99.90;;;;;;5093507;28;20052;-65
2021/12/08 02:56:17;;;;;;;43.28;17.90;;;29.00;99.90;;;;;;5095092;28;20024;-65
2021/12/08 02:58:44;;;;;;;48.25;17.95;;;28.90;99.90;;;;;;5097450;28;20052;-64
2021/12/08 03:01:12;;;;;;;59.30;14.45;;;28.90;99.90;;;;;;5096769;28;20380;-65
2021/12/08 03:03:39;;;;;;;47.22;14.30;;;29.00;99.90;;;;;;5097503;28;20024;-64
2021/12/08 03:06:06;;;;;;;39.33;13.45;;;29.00;99.90;;;;;;5097345;28;20024;-64
2021/12/08 03:08:33;;;;;;;45.85;14.85;;;29.00;99.90;;;;;;5096911;28;20028;-65
2021/12/08 03:11:00;;;;;;;35.90;13.65;;;29.10;99.90;;;;;;5096019;28;20020;-65
2021/12/08 03:13:32;;;;;;;44.85;15.77;;;29.40;99.90;;;;;;5093436;28;20032;-65
2021/12/08 03:15:59;;;;;;;42.25;16.27;;;29.50;99.90;;;;;;5096621;28;20107;-65
2021/12/08 03:18:33;;;;;;;34.15;11.77;;;29.70;99.90;;;;;;5097032;28;20388;-66
2021/12/08 03:21:01;;;;;;;41.75;13.60;;;29.70;99.90;;;;;;5096658;28;20448;-68
2021/12/08 03:23:36;;;;;;;42.25;13.85;;;29.60;99.90;;;;;;5097170;28;20107;-68
2021/12/08 03:26:06;;;;;;;32.65;12.38;;;29.50;99.90;;;;;;5097205;28;20020;-66
2021/12/08 03:28:39;;;;;;;50.40;11.50;;;29.50;99.90;;;;;;5094768;28;20028;-66
2021/12/08 03:31:12;;;;;;;48.20;12.02;;;29.30;99.90;;;;;;5094309;28;20375;-65
2021/12/08 03:33:41;;;;;;;35.13;13.85;;;29.20;99.90;;;;;;5092283;28;20044;-67
2021/12/08 03:36:08;;;;;;;30.75;14.18;;;29.20;99.90;;;;;;5096777;28;20034;-65
2021/12/08 03:38:36;;;;;;;34.00;14.23;;;29.20;99.90;;;;;;5096648;28;20402;-65
2021/12/08 03:41:04;;;;;;;44.40;17.45;;;29.30;99.90;;;;;;5096394;28;20058;-66
2021/12/08 03:43:31;;;;;;;43.20;22.90;;;29.40;99.90;;;;;;5097104;28;20042;-66
2021/12/08 03:45:59;;;;;;;46.63;15.57;;;29.40;99.90;;;;;;5095539;28;20118;-65
2021/12/08 03:48:43;;;;;;;33.53;15.02;;;29.50;99.90;;;;;;5095226;28;20032;-66
2021/12/08 03:51:10;;;;;;;30.10;13.20;;;29.60;99.90;;;;;;5097098;28;20380;-63
2021/12/08 03:53:37;;;;;;;84.53;48.50;;;29.60;99.90;;;;;;5096737;28;20027;-66
2021/12/08 03:56:05;;;;;;;40.03;20.08;;;29.60;99.90;;;;;;5096749;28;20024;-65
2021/12/08 03:58:31;;;;;;;26.70;13.02;;;29.70;99.90;;;;;;5095984;28;20129;-65
2021/12/08 04:00:58;;;;;;;51.75;31.10;;;29.80;99.90;;;;;;5096539;28;20028;-65
2021/12/08 04:03:29;;;;;;;113.80;71.18;;;29.70;99.90;;;;;;5096077;28;20020;-65
2021/12/08 04:05:59;;;;;;;40.67;24.25;;;29.80;99.90;;;;;;5095517;28;20054;-65
2021/12/08 04:08:39;;;;;;;43.28;19.42;;;29.80;99.90;;;;;;5095628;28;20024;-64
2021/12/08 04:11:07;;;;;;;48.33;24.00;;;29.90;99.90;;;;;;5093381;28;20117;-64
2021/12/08 04:13:48;;;;;;;27.08;10.50;;;30.00;99.90;;;;;;5089831;28;20608;-64
2021/12/08 04:16:18;;;;;;;25.60;9.52;;;30.00;99.90;;;;;;5094252;28;20028;-67
2021/12/08 04:18:45;;;;;;;25.85;10.13;;;30.20;99.90;;;;;;5094653;28;20026;-66
2021/12/08 04:21:15;;;;;;;37.55;17.75;;;30.20;99.90;;;;;;5094508;28;20020;-64
2021/12/08 04:23:43;;;;;;;23.75;10.27;;;30.40;99.90;;;;;;5095558;28;20016;-66
2021/12/08 04:26:16;;;;;;;39.72;16.45;;;30.30;99.90;;;;;;5095753;28;20144;-66
2021/12/08 04:28:43;;;;;;;31.42;8.90;;;30.40;99.90;;;;;;5094113;28;20035;-64
2021/12/08 04:31:19;;;;;;;24.50;8.18;;;30.50;99.90;;;;;;5094446;28;20021;-66
2021/12/08 04:33:52;;;;;;;23.08;8.05;;;30.60;99.90;;;;;;5094654;28;20498;-64
2021/12/08 04:36:20;;;;;;;22.70;7.03;;;30.70;99.90;;;;;;5093461;28;20027;-65
2021/12/08 04:38:51;;;;;;;27.08;7.50;;;30.70;99.90;;;;;;5094826;28;20016;-64
2021/12/08 04:41:30;;;;;;;28.40;9.43;;;30.80;99.50;;;;;;5094777;28;20337;-65
2021/12/08 04:44:08;;;;;;;21.42;8.20;;;30.80;98.90;;;;;;5094524;28;20103;-65
2021/12/08 04:46:59;;;;;;;33.08;9.98;;;30.90;99.90;;;;;;5093979;28;20484;-64
2021/12/08 05:00:39;;;;;;;22.38;7.45;;;31.10;95.80;;;;;;5088981;28;20418;-66
2021/12/08 05:03:19;;;;;;;29.55;10.10;;;31.00;97.70;;;;;;5093732;28;20028;-66
2021/12/08 05:06:05;;;;;;;22.15;9.95;;;31.10;98.40;;;;;;5090800;28;20028;-64
2021/12/08 05:11:09;;;;;;;22.45;8.93;;;31.20;98.50;;;;;;5091700;28;20365;-67
2021/12/08 05:13:37;;;;;;;28.48;8.70;;;31.20;97.80;;;;;;5094254;28;20024;-66
2021/12/08 05:16:04;;;;;;;26.75;9.60;;;31.30;97.80;;;;;;5094073;28;20020;-65
2021/12/08 05:18:37;;;;;;;24.10;13.60;;;31.20;96.50;;;;;;5092631;28;20024;-66
2021/12/08 05:21:29;;;;;;;24.73;14.25;;;31.30;97.10;;;;;;5094076;28;20024;-65
2021/12/08 05:23:58;;;;;;;;;;;31.40;97.80;;;;;;5093277;28;20581;-65
2021/12/08 05:26:29;;;;;;;22.17;8.23;;;31.50;96.90;;;;;;5094610;28;20370;-64
2021/12/08 05:29:01;;;;;;;41.80;24.30;;;31.50;96.60;;;;;;5094040;28;20024;-67
2021/12/08 05:31:29;;;;;;;;;;;31.50;95.40;;;;;;5091633;28;20028;-66
2021/12/08 05:33:56;;;;;;;17.85;8.35;;;31.40;95.70;;;;;;5093739;28;19916;-66
2021/12/08 05:36:23;;;;;;;25.67;8.90;;;31.50;96.20;;;;;;5094401;28;20051;-67
2021/12/08 05:38:50;;;;;;;17.42;8.73;;;31.50;95.80;;;;;;5094283;28;20032;-65
2021/12/08 05:41:23;;;;;;;18.30;8.82;;;31.50;96.50;;;;;;5094178;28;20028;-66
2021/12/08 05:43:50;;;;;;;19.67;8.95;;;31.50;96.70;;;;;;5093734;28;20020;-64
2021/12/08 05:46:21;;;;;;;21.52;9.50;;;31.60;94.30;;;;;;5093962;28;20035;-64
2021/12/08 05:48:50;;;;;;;15.10;8.07;;;31.50;95.90;;;;;;5094211;28;20027;-66
2021/12/08 05:51:27;;;;;;;20.73;8.80;;;31.40;95.10;;;;;;5093757;28;20089;-66
2021/12/08 05:53:56;;;;;;;18.15;8.98;;;31.40;95.10;;;;;;5093215;28;20027;-66
2021/12/08 05:56:23;;;;;;;18.05;8.90;;;31.30;96.10;;;;;;5090509;28;20059;-66
2021/12/08 05:58:54;;;;;;;24.65;9.38;;;31.40;95.50;;;;;;5091464;28;20035;-66
2021/12/08 06:01:32;;;;;;;28.33;9.05;;;31.50;96.00;;;;;;5091133;28;20480;-65
2021/12/08 06:04:00;;;;;;;23.92;10.77;;;31.60;96.30;;;;;;5092832;28;20076;-65
2021/12/08 06:06:28;;;;;;;17.67;10.00;;;31.70;95.00;;;;;;5093420;28;20024;-66
2021/12/08 06:08:56;;;;;;;18.95;8.82;;;31.70;94.10;;;;;;5092338;28;20425;-66
2021/12/08 06:11:25;;;;;;;17.02;8.43;;;31.60;95.10;;;;;;5093797;28;20034;-66
2021/12/08 06:13:53;;;;;;;23.17;10.57;;;31.60;95.70;;;;;;5093757;28;20133;-66
2021/12/08 06:16:21;;;;;;;25.42;10.00;;;31.70;94.60;;;;;;5093216;28;20024;-66
2021/12/08 06:18:51;;;;;;;22.02;10.07;;;31.60;94.60;;;;;;5091974;28;20012;-65
2021/12/08 06:21:21;;;;;;;22.25;10.13;;;31.60;93.40;;;;;;5093196;28;20114;-66
2021/12/08 06:23:49;;;;;;;23.50;10.80;;;31.50;95.40;;;;;;5090777;28;20495;-65
2021/12/08 06:26:20;;;;;;;20.60;10.45;;;31.50;94.90;;;;;;5093003;28;20394;-65
2021/12/08 06:28:47;;;;;;;19.70;9.80;;;31.50;96.00;;;;;;5090394;28;20102;-65
2021/12/08 06:31:16;;;;;;;18.83;9.63;;;31.60;94.60;;;;;;5090674;28;20024;-64
2021/12/08 06:33:44;;;;;;;16.75;9.35;;;31.70;93.50;;;;;;5091898;28;20024;-66
2021/12/08 06:36:19;;;;;;;17.30;8.63;;;31.60;92.90;;;;;;5089910;28;20016;-65
2021/12/08 06:38:49;;;;;;;17.00;8.75;;;31.60;94.00;;;;;;5090564;28;20272;-66
2021/12/08 06:41:22;;;;;;;20.90;9.77;;;31.60;93.70;;;;;;5092459;28;20063;-64
2021/12/08 06:43:56;;;;;;;24.95;8.98;;;31.60;93.30;;;;;;5089345;28;20024;-66
2021/12/08 06:46:24;;;;;;;22.95;9.70;;;31.60;93.90;;;;;;5089894;28;20028;-65
2021/12/08 06:48:55;;;;;;;17.33;8.88;;;31.60;92.80;;;;;;5091813;28;20024;-65
2021/12/08 06:51:35;;;;;;;23.58;10.07;;;31.70;93.10;;;;;;5092140;28;20012;-65
2021/12/08 06:54:10;;;;;;;19.65;10.05;;;31.80;92.70;;;;;;5092499;28;20024;-64
2021/12/08 06:56:42;;;;;;;27.02;13.73;;;31.80;93.70;;;;;;5092235;28;20052;-63
2021/12/08 06:59:13;;;;;;;;;;;31.80;93.70;;;;;;5089519;28;20025;-64
2021/12/08 07:02:02;;;;;;;22.48;12.05;;;31.70;94.10;;;;;;5088277;28;19919;-64
2021/12/08 07:07:22;;;;;;;20.20;10.20;;;31.80;92.80;;;;;;5090096;28;20028;-62
2021/12/08 07:09:54;;;;;;;22.52;10.23;;;31.90;92.30;;;;;;5076197;28;20096;-63
2021/12/08 07:12:24;;;;;;;;;;;32.00;92.50;;;;;;5093226;28;20067;-61
2021/12/08 07:14:59;;;;;;;39.10;25.23;;;31.90;91.80;;;;;;5092306;28;19907;-62
2021/12/08 07:17:30;;;;;;;91.32;64.07;;;31.80;92.70;;;;;;5089991;28;20024;-62
2021/12/08 07:20:18;;;;;;;61.15;39.47;;;31.80;92.20;;;;;;5090511;28;20016;-63
2021/12/08 07:22:49;;;;;;;73.97;47.72;;;31.70;93.20;;;;;;5090883;28;20022;-62
2021/12/08 07:25:18;;;;;;;22.15;11.45;;;31.60;92.70;;;;;;5088631;28;20020;-64
2021/12/08 07:27:46;;;;;;;163.05;111.07;;;31.60;92.80;;;;;;5093102;28;20032;-62
2021/12/08 07:30:35;;;;;;;25.25;13.23;;;31.60;93.50;;;;;;5085824;28;20016;-62
2021/12/08 07:33:03;;;;;;;36.72;11.60;;;31.50;93.50;;;;;;5091260;28;20052;-63
2021/12/08 07:35:35;;;;;;;48.17;31.52;;;31.50;93.80;;;;;;5092115;28;20048;-62
2021/12/08 07:38:01;;;;;;;;;;;31.30;94.30;;;;;;5093116;28;20507;-63
2021/12/08 07:40:36;;;;;;;160.23;34.58;;;31.20;94.80;;;;;;5092991;28;19904;-64
2021/12/08 07:43:11;;;;;;;74.68;52.50;;;31.20;93.70;;;;;;5094607;28;20031;-64
2021/12/08 07:46:03;;;;;;;30.63;15.45;;;31.20;94.70;;;;;;5096643;28;20056;-62
2021/12/08 07:48:36;;;;;;;56.10;21.10;;;31.10;99.50;;;;;;5096528;28;20581;-64
2021/12/08 07:51:14;;;;;;;117.53;62.22;;;30.70;99.90;;;;;;5091774;28;20032;-64
2021/12/08 07:53:41;;;;;;;65.07;34.63;;;30.00;99.90;;;;;;5093584;28;20075;-63
2021/12/08 07:56:11;;;;;;;30.75;15.13;;;29.90;99.90;;;;;;5095519;28;20039;-65
2021/12/08 07:58:42;;;;;;;32.53;15.32;;;29.80;99.90;;;;;;5096242;28;20062;-64
2021/12/08 08:01:14;;;;;;;27.25;14.05;;;29.90;99.90;;;;;;5094739;28;20051;-64
2021/12/08 08:03:41;;;;;;;30.30;14.20;;;30.10;99.90;;;;;;5094439;28;20740;-65
2021/12/08 08:06:14;;;;;;;60.60;45.70;;;30.10;99.90;;;;;;5095887;28;20439;-65
2021/12/08 08:08:41;;;;;;;59.47;49.45;;;30.10;99.90;;;;;;5095942;28;20032;-65
2021/12/08 08:11:16;;;;;;;36.03;18.52;;;30.10;99.90;;;;;;5093995;28;20024;-64
2021/12/08 08:13:43;;;;;;;37.33;19.67;;;29.80;99.90;;;;;;5095065;28;20472;-65
2021/12/08 08:16:15;;;;;;;35.78;13.60;;;29.60;99.90;;;;;;5094991;28;20028;-65
2021/12/08 08:18:51;;;;;;;44.60;16.25;;;29.40;99.90;;;;;;5090552;28;20024;-65
2021/12/08 08:21:23;;;;;;;34.90;17.20;;;29.00;99.90;;;;;;5092741;28;20024;-65
2021/12/08 08:23:50;;;;;;;29.52;13.13;;;28.60;99.90;;;;;;5092571;28;20453;-64
2021/12/08 08:26:17;;;;;;;46.72;18.73;;;28.20;99.90;;;;;;5089802;28;20460;-64
2021/12/08 08:28:49;;;;;;;31.38;16.58;;;28.00;99.90;;;;;;5094552;28;20024;-64
2021/12/08 08:31:21;;;;;;;31.80;15.07;;;27.80;99.90;;;;;;5094141;28;20465;-64
2021/12/08 08:33:48;;;;;;;30.23;15.85;;;27.70;99.90;;;;;;5095194;28;20037;-64
2021/12/08 08:36:23;;;;;;;30.30;16.40;;;27.60;99.90;;;;;;5095151;28;20063;-65
2021/12/08 08:39:00;;;;;;;26.98;15.05;;;27.60;99.90;;;;;;5095472;28;20030;-65
2021/12/08 08:41:33;;;;;;;33.63;17.27;;;27.60;99.90;;;;;;5094107;28;20113;-64
2021/12/08 08:44:08;;;;;;;45.88;24.35;;;27.60;99.90;;;;;;5092619;28;20356;-64
2021/12/08 08:46:38;;;;;;;39.78;22.13;;;27.60;99.90;;;;;;5095261;28;20443;-64
2021/12/08 08:49:11;;;;;;;44.63;24.48;;;27.80;99.90;;;;;;5092983;28;20016;-63
2021/12/08 08:51:46;;;;;;;47.08;27.80;;;27.90;99.90;;;;;;5094338;28;20085;-64
2021/12/08 08:54:20;;;;;;;42.97;26.42;;;27.80;99.90;;;;;;5093658;28;20027;-65
2021/12/08 08:57:01;;;;;;;40.03;23.90;;;27.80;99.90;;;;;;5095061;28;20020;-64
2021/12/08 08:59:34;;;;;;;32.95;22.88;;;27.80;99.90;;;;;;5084847;28;20020;-66
2021/12/08 09:02:07;;;;;;;35.90;23.65;;;27.90;99.90;;;;;;5095248;28;20056;-65
2021/12/08 09:04:37;;;;;;;37.83;24.20;;;27.90;99.90;;;;;;5091971;28;20452;-65
2021/12/08 09:07:13;;;;;;;47.65;31.73;;;27.70;99.90;;;;;;5094186;28;20036;-63
2021/12/08 09:09:46;;;;;;;48.80;31.42;;;27.70;99.90;;;;;;5093375;28;20020;-64
2021/12/08 09:12:18;;;;;;;46.00;31.05;;;27.50;99.90;;;;;;5090255;28;20483;-64
2021/12/08 09:14:52;;;;;;;37.50;28.33;;;27.70;99.90;;;;;;5093306;28;20059;-64
2021/12/08 09:17:24;;;;;;;74.63;51.47;;;27.70;99.90;;;;;;5092641;28;20039;-64
2021/12/08 09:19:59;;;;;;;99.68;73.85;;;27.80;99.90;;;;;;5088966;28;20387;-64
2021/12/08 09:22:35;;;;;;;56.17;38.28;;;27.90;99.90;;;;;;5093314;28;20021;-64
2021/12/08 09:25:17;;;;;;;81.15;58.65;;;27.70;99.90;;;;;;5093356;28;20024;-64
2021/12/08 09:27:49;;;;;;;64.22;44.63;;;27.90;99.90;;;;;;5094236;28;20031;-64
2021/12/08 09:30:31;;;;;;;26.38;15.30;;;28.10;99.90;;;;;;5095199;28;20035;-64
2021/12/08 09:33:01;;;;;;;;;;;27.90;99.90;;;;;;5095516;28;20032;-64
2021/12/08 09:35:38;;;;;;;25.13;16.30;;;27.70;99.90;;;;;;5094454;28;20360;-64
2021/12/08 09:38:12;;;;;;;27.15;17.92;;;27.70;99.90;;;;;;5094774;28;20039;-64
2021/12/08 09:40:48;;;;;;;16.25;9.60;;;27.90;99.90;;;;;;5094811;28;20032;-63
2021/12/08 09:43:28;;;;;;;19.65;9.93;;;27.70;99.90;;;;;;5094703;28;20052;-64
2021/12/08 09:46:04;;;;;;;26.90;11.00;;;27.70;99.90;;;;;;5091262;28;20036;-64
2021/12/08 09:48:31;;;;;;;17.75;8.25;;;27.70;99.90;;;;;;5090746;28;20077;-64
2021/12/08 09:51:00;;;;;;;18.13;9.05;;;27.70;99.90;;;;;;5083691;28;20062;-64
2021/12/08 09:53:27;;;;;;;17.00;8.40;;;27.60;99.90;;;;;;5091145;28;20383;-64
2021/12/08 09:55:55;;;;;;;17.58;9.10;;;27.60;99.90;;;;;;5094298;28;20107;-64
2021/12/08 09:58:23;;;;;;;23.42;12.43;;;27.80;99.90;;;;;;5093236;28;20024;-64
2021/12/08 10:00:53;;;;;;;22.38;13.88;;;27.90;99.90;;;;;;5094267;28;20483;-65
2021/12/08 10:03:20;;;;;;;20.60;11.40;;;27.90;99.90;;;;;;5094274;28;20059;-64
2021/12/08 10:05:47;;;;;;;22.52;11.02;;;27.80;99.90;;;;;;5093405;28;20104;-65
2021/12/08 10:08:13;;;;;;;25.33;11.88;;;27.80;99.90;;;;;;5093827;28;20040;-64
2021/12/08 10:10:43;;;;;;;21.17;11.55;;;27.80;99.90;;;;;;5094160;28;20063;-64
2021/12/08 10:13:12;;;;;;;28.42;13.95;;;27.80;99.90;;;;;;5088517;28;20362;-65
2021/12/08 10:15:39;;;;;;;20.90;11.20;;;27.80;99.90;;;;;;5087996;28;20468;-65
2021/12/08 10:18:08;;;;;;;35.28;14.77;;;27.70;99.90;;;;;;5092052;28;20028;-64
2021/12/08 10:20:40;;;;;;;361.70;318.30;;;27.70;99.90;;;;;;5091048;28;20020;-62
2021/12/08 10:23:14;;;;;;;620.22;475.70;;;27.70;99.90;;;;;;5089097;28;20012;-63
2021/12/08 10:25:46;;;;;;;45.50;24.80;;;27.70;99.90;;;;;;5092817;28;20085;-64
2021/12/08 10:28:21;;;;;;;234.27;149.55;;;27.80;99.90;;;;;;5091200;28;20070;-65
2021/12/08 10:30:53;;;;;;;31.63;17.85;;;27.70;99.90;;;;;;5093385;28;20475;-65
2021/12/08 10:33:36;;;;;;;112.28;79.03;;;27.80;99.90;;;;;;5093902;28;20029;-65
2021/12/08 10:36:17;;;;;;;66.50;46.58;;;27.90;99.90;;;;;;5092460;28;20042;-64
2021/12/08 10:38:44;;;;;;;47.83;24.67;;;27.90;99.90;;;;;;5093447;28;20036;-65
2021/12/08 10:41:11;;;;;;;46.78;26.40;;;28.00;99.90;;;;;;5093701;28;20024;-65
2021/12/08 10:43:37;;;;;;;30.55;15.40;;;27.90;99.90;;;;;;5087457;28;20507;-65
2021/12/08 10:46:11;;;;;;;308.33;218.60;;;27.90;99.90;;;;;;5093535;28;20032;-64
2021/12/08 10:48:44;;;;;;;105.70;56.53;;;27.90;99.90;;;;;;5093413;28;20024;-65
2021/12/08 10:56:40;;;;;;;117.03;84.30;;;27.90;99.90;;;;;;5093603;28;20024;-65
2021/12/08 10:59:07;;;;;;;130.07;87.82;;;28.00;99.90;;;;;;5093049;28;20108;-64
2021/12/08 11:01:35;;;;;;;72.47;40.63;;;28.00;99.90;;;;;;5088010;28;20468;-66
2021/12/08 11:04:06;;;;;;;48.50;27.77;;;28.00;99.90;;;;;;5074795;28;20393;-65
2021/12/08 11:06:36;;;;;;;38.75;20.35;;;28.10;99.90;;;;;;5093414;28;20024;-64
2021/12/08 11:09:06;;;;;;;35.45;17.33;;;28.10;99.90;;;;;;5084692;28;20530;-64
2021/12/08 11:11:35;;;;;;;37.60;17.35;;;28.00;99.90;;;;;;5084520;28;20539;-66
2021/12/08 11:14:04;;;;;;;47.05;20.92;;;27.90;99.90;;;;;;5076806;28;20025;-65
2021/12/08 11:16:35;;;;;;;44.95;21.02;;;27.90;99.90;;;;;;5094177;28;20025;-65
2021/12/08 11:19:13;;;;;;;41.13;23.30;;;27.90;99.90;;;;;;5097430;28;20032;-64
2021/12/08 11:21:47;;;;;;;46.15;24.02;;;28.00;99.90;;;;;;5097350;28;20024;-65
2021/12/08 11:24:34;;;;;;;43.15;22.58;;;27.90;99.90;;;;;;5095793;28;20032;-65
2021/12/08 11:27:04;;;;;;;50.13;21.17;;;27.90;99.90;;;;;;5097063;28;20020;-65
2021/12/08 11:29:34;;;;;;;49.58;23.15;;;28.00;99.90;;;;;;5097150;28;20016;-64
2021/12/08 11:32:07;;;;;;;47.65;22.85;;;28.00;99.90;;;;;;5096993;28;20495;-65
2021/12/08 11:34:43;;;;;;;46.20;21.17;;;28.10;99.90;;;;;;5096368;28;20051;-65
2021/12/08 11:37:13;;;;;;;40.50;19.23;;;28.10;99.90;;;;;;5091106;28;20103;-65
2021/12/08 11:39:43;;;;;;;33.28;18.70;;;28.20;99.90;;;;;;5092360;28;20028;-65
2021/12/08 11:42:14;;;;;;;40.13;17.38;;;28.10;99.90;;;;;;5096845;28;20032;-65
2021/12/08 11:44:44;;;;;;;36.60;17.30;;;28.10;99.90;;;;;;5096728;28;20028;-64
2021/12/08 11:47:15;;;;;;;42.42;17.15;;;28.10;99.90;;;;;;5096614;28;20103;-65
2021/12/08 11:49:46;;;;;;;33.03;16.05;;;28.10;99.90;;;;;;5096725;28;20377;-64
2021/12/08 11:52:19;;;;;;;32.78;16.73;;;28.20;99.90;;;;;;5095032;28;20032;-64
2021/12/08 11:54:50;;;;;;;37.88;16.15;;;28.20;99.90;;;;;;5084685;28;20141;-64
2021/12/08 11:57:24;;;;;;;29.35;17.15;;;28.20;99.90;;;;;;5076259;28;20017;-63
2021/12/08 12:00:02;;;;;;;47.40;24.58;;;28.10;99.90;;;;;;5076389;28;20111;-64
2021/12/08 12:02:39;;;;;;;60.63;30.92;;;28.10;99.90;;;;;;5090964;28;20036;-64
2021/12/08 12:05:13;;;;;;;56.78;27.52;;;28.00;99.90;;;;;;5095606;28;20365;-65
2021/12/08 12:07:40;;;;;;;56.95;30.50;;;28.00;99.90;;;;;;5094076;28;20126;-64
2021/12/08 12:10:12;;;;;;;55.92;29.50;;;28.00;99.90;;;;;;5095476;28;20032;-64
2021/12/08 12:12:41;;;;;;;58.63;30.60;;;28.00;99.90;;;;;;5093525;28;20101;-65
2021/12/08 12:15:11;;;;;;;56.53;30.27;;;28.00;99.90;;;;;;5096232;28;20031;-64
2021/12/08 12:17:38;;;;;;;53.75;31.70;;;28.00;99.90;;;;;;5096719;28;20103;-65
2021/12/08 12:20:05;;;;;;;63.78;34.05;;;28.00;99.90;;;;;;5096414;28;20096;-65
2021/12/08 12:22:52;;;;;;;71.57;40.35;;;28.00;99.90;;;;;;5091319;28;20103;-67
2021/12/08 12:25:34;;;;;;;62.50;36.55;;;28.00;99.90;;;;;;5091643;28;20035;-66
2021/12/08 12:28:15;;;;;;;66.10;35.25;;;28.00;99.90;;;;;;5084261;28;20530;-66
2021/12/08 12:30:53;;;;;;;66.10;37.78;;;28.00;99.90;;;;;;5088567;28;20047;-67
2021/12/08 12:33:23;;;;;;;64.75;34.58;;;27.90;99.90;;;;;;5094983;28;20114;-65
2021/12/08 12:35:52;;;;;;;72.18;36.83;;;27.90;99.90;;;;;;5095182;28;20513;-65
2021/12/08 12:38:35;;;;;;;62.60;30.67;;;28.00;99.90;;;;;;5095692;28;20032;-64
2021/12/08 12:41:05;;;;;;;58.30;33.03;;;28.00;99.90;;;;;;5095428;28;20160;-64
2021/12/08 12:43:37;;;;;;;78.85;35.03;;;27.90;99.90;;;;;;5095569;28;20030;-64
2021/12/08 12:46:07;;;;;;;63.30;34.17;;;27.90;99.90;;;;;;5095407;28;20414;-65
2021/12/08 12:48:37;;;;;;;63.38;36.00;;;27.90;99.90;;;;;;5095679;28;20028;-65
2021/12/08 12:51:10;;;;;;;62.08;35.70;;;27.90;99.90;;;;;;5095805;28;20032;-66
2021/12/08 12:53:38;;;;;;;69.82;36.58;;;27.90;99.90;;;;;;5095158;28;20115;-65
2021/12/08 12:56:08;;;;;;;72.82;36.30;;;27.90;99.90;;;;;;5095204;28;20067;-65
2021/12/08 12:58:42;;;;;;;69.78;40.15;;;27.80;99.90;;;;;;5095161;28;20035;-66
2021/12/08 13:01:16;;;;;;;58.17;34.05;;;27.80;99.90;;;;;;5095195;28;20020;-66
2021/12/08 13:03:50;;;;;;;69.45;38.47;;;27.80;99.90;;;;;;5095271;28;20024;-66
2021/12/08 13:06:37;;;;;;;58.28;27.17;;;27.70;99.90;;;;;;5094538;28;20081;-66
2021/12/08 13:09:07;;;;;;;45.35;22.42;;;27.80;99.90;;;;;;5078812;28;20059;-64
2021/12/08 13:11:57;;;;;;;36.80;22.02;;;27.80;99.90;;;;;;5080479;28;20034;-65
2021/12/08 13:14:27;;;;;;;54.03;24.30;;;27.80;99.90;;;;;;5094500;28;20060;-66
2021/12/08 13:17:11;;;;;;;42.40;23.17;;;27.80;99.90;;;;;;5093441;28;20036;-65
2021/12/08 13:19:41;;;;;;;38.30;22.10;;;27.80;99.90;;;;;;5094522;28;20435;-65
2021/12/08 13:22:08;;;;;;;42.58;21.42;;;27.70;99.90;;;;;;5094127;28;20028;-65
2021/12/08 13:24:42;;;;;;;47.20;23.30;;;27.70;99.90;;;;;;5093548;28;20476;-66
2021/12/08 13:27:10;;;;;;;37.83;20.75;;;27.70;99.90;;;;;;5094216;28;20028;-67
2021/12/08 13:29:41;;;;;;;45.95;19.73;;;27.60;99.90;;;;;;5094160;28;20021;-67
2021/12/08 13:32:11;;;;;;;40.33;20.80;;;27.60;99.90;;;;;;5093952;28;20039;-66
2021/12/08 13:34:41;;;;;;;39.95;20.08;;;27.70;99.90;;;;;;5094040;28;20400;-67
2021/12/08 13:37:20;;;;;;;41.67;21.17;;;27.60;99.90;;;;;;5094109;28;20108;-67
2021/12/08 13:39:50;;;;;;;38.25;21.38;;;27.60;99.90;;;;;;5093173;28;20032;-66